Time;durP1;ratioP1;P1;durP2;ratioP2;P2;SDS_P1;SDS_P2;PMS_P1;PMS_P2;Temp;Humidity;BMP_temperature;BMP_pressure;BME280_temperature;BME280_humidity;BME280_pressure;Samples;Min_cycle;Max_cycle;Signal;HPM_P1;HPM_P2
2022/05/12 00:01:24;;;;;;;3.93;2.20;;;20.10;96.00;;;;;;5039835;28;20500;-72
2022/05/12 00:03:52;;;;;;;6.33;2.40;;;20.10;96.20;;;;;;5037189;28;20472;-72
2022/05/12 00:06:18;;;;;;;6.90;2.20;;;20.10;96.30;;;;;;5036125;28;20453;-73
2022/05/12 00:08:45;;;;;;;2.73;2.03;;;20.10;96.40;;;;;;5051985;28;20880;-72
2022/05/12 00:11:12;;;;;;;5.87;2.50;;;20.10;96.50;;;;;;5051862;28;20476;-71
2022/05/12 00:13:38;;;;;;;2.63;2.37;;;20.10;96.80;;;;;;5052076;28;20460;-73
2022/05/12 00:16:05;;;;;;;2.57;2.37;;;20.10;97.00;;;;;;5044917;28;20507;-73
2022/05/12 00:18:32;;;;;;;4.00;2.30;;;20.10;97.30;;;;;;5032722;28;20481;-71
2022/05/12 00:21:00;;;;;;;4.80;2.37;;;20.20;97.40;;;;;;5037573;28;20526;-72
2022/05/12 00:23:29;;;;;;;5.83;2.20;;;20.10;97.50;;;;;;5051529;28;20514;-72
2022/05/12 00:25:57;;;;;;;2.80;2.23;;;20.10;97.90;;;;;;5040497;28;20453;-72
2022/05/12 00:28:25;;;;;;;5.20;2.10;;;20.10;98.20;;;;;;5047579;28;20501;-73
2022/05/12 00:30:54;;;;;;;7.63;2.10;;;20.00;98.30;;;;;;5052352;28;20476;-72
2022/05/12 00:33:25;;;;;;;6.80;2.30;;;20.00;99.10;;;;;;5039265;28;20445;-72
2022/05/12 00:35:51;;;;;;;6.20;2.20;;;19.90;98.90;;;;;;5052248;28;20461;-73
2022/05/12 00:38:19;;;;;;;5.30;2.20;;;19.90;99.20;;;;;;5049913;28;20952;-72
2022/05/12 00:40:48;;;;;;;7.30;2.10;;;19.80;99.50;;;;;;5049717;28;20537;-72
2022/05/12 00:43:38;;;;;;;4.23;2.10;;;19.80;99.70;;;;;;5031870;28;20503;-72
2022/05/12 00:46:06;;;;;;;4.07;2.30;;;19.80;99.90;;;;;;5029846;28;20825;-73
2022/05/12 00:48:33;;;;;;;4.23;2.57;;;19.80;99.90;;;;;;5037662;28;21027;-73
2022/05/12 00:51:01;;;;;;;3.23;2.33;;;19.70;99.90;;;;;;5019286;28;20476;-72
2022/05/12 00:53:31;;;;;;;6.63;2.83;;;19.70;99.90;;;;;;5051252;28;20526;-73
2022/05/12 00:55:59;;;;;;;6.23;2.37;;;19.60;99.90;;;;;;5032318;28;20461;-72
2022/05/12 00:58:27;;;;;;;2.37;2.17;;;19.60;99.90;;;;;;5043639;28;20457;-72
2022/05/12 01:00:54;;;;;;;4.27;2.97;;;19.50;99.90;;;;;;5035135;28;20442;-73
2022/05/12 01:03:24;;;;;;;3.90;2.70;;;19.50;99.90;;;;;;5050810;28;20512;-72
2022/05/12 01:05:52;;;;;;;4.30;2.17;;;19.50;99.90;;;;;;5038565;28;20432;-73
2022/05/12 01:08:21;;;;;;;2.00;1.90;;;19.40;99.90;;;;;;5046176;28;20987;-73
2022/05/12 01:10:54;;;;;;;9.70;2.07;;;19.40;99.90;;;;;;5041287;28;20890;-72
2022/05/12 01:13:22;;;;;;;3.73;2.43;;;19.40;99.90;;;;;;5030989;28;20465;-73
2022/05/12 01:15:54;;;;;;;4.40;2.53;;;19.40;99.90;;;;;;5031277;28;20428;-72
2022/05/12 01:18:22;;;;;;;8.70;2.23;;;19.40;99.90;;;;;;5039057;28;20452;-72
2022/05/12 01:20:50;;;;;;;3.00;2.00;;;19.30;99.90;;;;;;5031239;28;20964;-72
2022/05/12 01:23:24;;;;;;;2.43;2.07;;;19.30;99.90;;;;;;5030839;28;20454;-72
2022/05/12 01:25:51;;;;;;;8.13;2.90;;;19.20;99.90;;;;;;5032986;28;20912;-72
2022/05/12 01:28:17;;;;;;;5.53;2.53;;;19.20;99.90;;;;;;5037984;28;20453;-73
2022/05/12 01:30:44;;;;;;;3.03;2.30;;;19.10;99.90;;;;;;5035343;28;20929;-73
2022/05/12 01:33:11;;;;;;;4.23;2.30;;;19.10;99.90;;;;;;5036533;28;20973;-73
2022/05/12 01:35:38;;;;;;;5.00;1.83;;;19.00;99.90;;;;;;5051203;28;20834;-73
2022/05/12 01:38:04;;;;;;;11.07;2.47;;;19.00;99.90;;;;;;5039398;28;20433;-73
2022/05/12 01:40:32;;;;;;;5.63;2.43;;;18.90;99.90;;;;;;5031031;28;20539;-73
2022/05/12 01:42:59;;;;;;;10.93;3.00;;;18.90;99.90;;;;;;5048125;28;20427;-73
2022/05/12 01:45:26;;;;;;;10.20;2.87;;;18.80;99.90;;;;;;5048519;28;20427;-73
2022/05/12 01:47:53;;;;;;;5.40;2.60;;;18.70;99.90;;;;;;5040572;28;20455;-72
2022/05/12 01:50:21;;;;;;;8.37;3.30;;;18.60;99.90;;;;;;5051235;28;20419;-72
2022/05/12 01:52:49;;;;;;;9.73;2.90;;;18.60;99.90;;;;;;5049188;28;20907;-72
2022/05/12 01:55:18;;;;;;;11.00;2.73;;;18.40;99.90;;;;;;5030415;28;20435;-72
2022/05/12 01:57:46;;;;;;;7.10;3.50;;;18.30;99.90;;;;;;5041776;28;20431;-72
2022/05/12 02:00:16;;;;;;;8.37;2.93;;;18.20;99.90;;;;;;5041877;28;20537;-72
2022/05/12 02:02:43;;;;;;;13.50;3.50;;;18.10;99.90;;;;;;5015257;28;20452;-72
2022/05/12 02:05:11;;;;;;;5.93;2.90;;;17.90;99.90;;;;;;5033170;28;20423;-72
2022/05/12 02:07:38;;;;;;;6.50;3.13;;;17.80;99.90;;;;;;5041896;28;20974;-72
2022/05/12 02:10:07;;;;;;;5.07;3.50;;;17.70;99.90;;;;;;5054213;28;20480;-72
2022/05/12 02:12:34;;;;;;;7.10;3.77;;;17.60;99.90;;;;;;5052549;28;20542;-73
2022/05/12 02:15:03;;;;;;;7.67;3.23;;;17.50;99.90;;;;;;5034452;28;20505;-72
2022/05/12 02:17:29;;;;;;;10.30;3.93;;;17.50;99.90;;;;;;5035179;28;20511;-72
2022/05/12 02:19:56;;;;;;;7.73;3.50;;;17.40;99.90;;;;;;5034540;28;20496;-72
2022/05/12 02:22:22;;;;;;;10.93;4.20;;;17.30;99.90;;;;;;5034483;28;20812;-72
2022/05/12 02:24:49;;;;;;;11.30;3.70;;;17.30;99.90;;;;;;5032557;28;20424;-72
2022/05/12 02:27:16;;;;;;;6.23;3.30;;;17.30;99.90;;;;;;5035966;28;20432;-72
2022/05/12 02:29:42;;;;;;;9.40;3.63;;;17.20;99.90;;;;;;5042089;28;20431;-72
2022/05/12 02:32:10;;;;;;;11.97;3.67;;;17.20;99.90;;;;;;5053958;28;20443;-72
2022/05/12 02:34:37;;;;;;;6.93;3.50;;;17.20;99.90;;;;;;5037312;28;20424;-72
2022/05/12 02:37:05;;;;;;;10.63;3.53;;;17.20;99.90;;;;;;5035566;28;20519;-72
2022/05/12 02:39:35;;;;;;;5.93;3.40;;;17.20;99.90;;;;;;5034260;28;20481;-72
2022/05/12 02:42:02;;;;;;;6.80;3.17;;;17.20;99.90;;;;;;5051950;28;20564;-72
2022/05/12 02:44:28;;;;;;;9.33;2.97;;;17.20;99.90;;;;;;5046376;28;20459;-72
2022/05/12 02:46:55;;;;;;;7.10;3.33;;;17.10;99.90;;;;;;5035625;28;20809;-72
2022/05/12 02:49:23;;;;;;;4.57;3.17;;;17.20;99.90;;;;;;5034236;28;20449;-72
2022/05/12 02:51:50;;;;;;;4.50;2.97;;;17.10;99.90;;;;;;5017012;28;20982;-72
2022/05/12 02:54:18;;;;;;;9.30;3.27;;;17.10;99.90;;;;;;5053723;28;20473;-72
2022/05/12 02:56:45;;;;;;;7.90;3.23;;;17.00;99.90;;;;;;5042801;28;20460;-72
2022/05/12 02:59:12;;;;;;;6.13;2.90;;;17.00;99.90;;;;;;5035031;28;20896;-72
2022/05/12 03:01:39;;;;;;;14.80;3.63;;;16.90;99.90;;;;;;5033944;28;20490;-72
2022/05/12 03:04:06;;;;;;;9.67;2.90;;;16.90;99.90;;;;;;5052343;28;20895;-72
2022/05/12 03:06:34;;;;;;;4.83;2.80;;;16.90;99.90;;;;;;5043905;28;20479;-72
2022/05/12 03:09:00;;;;;;;9.63;2.73;;;16.80;99.90;;;;;;5033735;28;20428;-72
2022/05/12 03:11:28;;;;;;;7.87;3.23;;;16.90;99.90;;;;;;5033911;28;20485;-72
2022/05/12 03:13:54;;;;;;;4.73;2.70;;;16.80;99.90;;;;;;5043372;28;20460;-72
2022/05/12 03:16:22;;;;;;;9.67;2.63;;;16.80;99.90;;;;;;5049680;28;20424;-72
2022/05/12 03:18:51;;;;;;;3.10;2.17;;;16.80;99.90;;;;;;5038859;28;20424;-72
2022/05/12 03:21:19;;;;;;;7.97;2.80;;;16.80;99.90;;;;;;5033838;28;20555;-72
2022/05/12 03:23:47;;;;;;;6.90;2.97;;;16.70;99.90;;;;;;5050379;28;20423;-72
2022/05/12 03:26:14;;;;;;;4.87;2.90;;;16.70;99.90;;;;;;5043831;28;20428;-72
2022/05/12 03:28:41;;;;;;;3.97;2.57;;;16.70;99.90;;;;;;5050124;28;20427;-72
2022/05/12 03:31:08;;;;;;;3.77;2.53;;;16.60;99.90;;;;;;5053676;28;20447;-72
2022/05/12 03:33:36;;;;;;;7.10;2.90;;;16.60;99.90;;;;;;5052782;28;20806;-72
2022/05/12 03:36:03;;;;;;;4.87;2.50;;;16.50;99.90;;;;;;5034093;28;20432;-72
2022/05/12 03:38:30;;;;;;;5.80;2.97;;;16.50;99.90;;;;;;5046767;28;20448;-72
2022/05/12 03:40:58;;;;;;;4.37;2.60;;;16.50;99.90;;;;;;5050233;28;20463;-72
2022/05/12 03:46:07;;;;;;;12.33;3.20;;;16.40;99.90;;;;;;5051432;28;20505;-72
2022/05/12 03:48:36;;;;;;;3.53;2.90;;;16.30;99.90;;;;;;5046925;28;20423;-72
2022/05/12 03:51:04;;;;;;;3.00;2.67;;;16.30;99.90;;;;;;5041785;28;20432;-72
2022/05/12 03:53:31;;;;;;;6.43;2.90;;;16.20;99.90;;;;;;5035791;28;20506;-72
2022/05/12 03:56:00;;;;;;;4.50;3.07;;;16.20;99.90;;;;;;5044506;28;20833;-72
2022/05/12 03:58:27;;;;;;;5.13;2.53;;;16.20;99.90;;;;;;5044642;28;20448;-72
2022/05/12 04:00:54;;;;;;;3.70;3.17;;;16.20;99.90;;;;;;5047615;28;20535;-72
2022/05/12 04:03:21;;;;;;;10.00;3.03;;;16.10;99.90;;;;;;5033084;28;20536;-72
2022/05/12 04:05:49;;;;;;;6.27;3.40;;;16.10;99.90;;;;;;5033439;28;20482;-72
2022/05/12 04:08:15;;;;;;;5.30;3.43;;;16.10;99.90;;;;;;5046273;28;20466;-72
2022/05/12 04:10:42;;;;;;;5.80;2.97;;;16.00;99.90;;;;;;5052718;28;20465;-73
2022/05/12 04:13:10;;;;;;;10.90;3.27;;;16.00;99.90;;;;;;5040642;28;20440;-71
2022/05/12 04:15:36;;;;;;;5.77;3.30;;;16.00;99.90;;;;;;5032773;28;20954;-72
2022/05/12 04:18:06;;;;;;;5.73;3.70;;;16.00;99.90;;;;;;5048295;28;20467;-72
2022/05/12 04:20:35;;;;;;;13.53;3.70;;;16.00;99.90;;;;;;5045391;28;20535;-71
2022/05/12 04:23:01;;;;;;;4.67;2.83;;;15.90;99.90;;;;;;5042807;28;20460;-72
2022/05/12 04:25:28;;;;;;;6.37;3.00;;;15.90;99.90;;;;;;5051765;28;20456;-72
2022/05/12 04:27:55;;;;;;;4.67;2.90;;;15.90;99.90;;;;;;5038766;28;20453;-72
2022/05/12 04:30:25;;;;;;;3.03;2.80;;;16.00;99.90;;;;;;5032258;28;20954;-72
2022/05/12 04:32:52;;;;;;;7.00;2.90;;;16.00;99.90;;;;;;5033758;28;20507;-72
2022/05/12 04:35:18;;;;;;;8.90;3.20;;;16.00;99.90;;;;;;5051682;28;20510;-72
2022/05/12 04:37:48;;;;;;;4.67;2.70;;;16.00;99.90;;;;;;5045345;28;20453;-72
2022/05/12 04:40:18;;;;;;;7.60;3.00;;;16.00;99.90;;;;;;5027874;28;20485;-72
2022/05/12 04:42:45;;;;;;;3.83;2.70;;;16.10;99.90;;;;;;5032518;28;20604;-72
2022/05/12 04:45:12;;;;;;;7.90;3.00;;;16.10;99.90;;;;;;5044653;28;20514;-72
2022/05/12 04:47:41;;;;;;;6.70;3.40;;;16.00;99.90;;;;;;5044431;28;20449;-72
2022/05/12 04:50:10;;;;;;;7.10;2.87;;;16.00;99.90;;;;;;5051360;28;21188;-72
2022/05/12 04:52:37;;;;;;;5.37;2.63;;;16.00;99.90;;;;;;5051701;28;20468;-69
2022/05/12 04:55:05;;;;;;;2.73;2.53;;;16.00;99.90;;;;;;5032433;28;20449;-69
2022/05/12 04:57:36;;;;;;;5.40;2.83;;;16.10;99.90;;;;;;5041003;28;20956;-69
2022/05/12 05:00:04;;;;;;;7.67;3.23;;;16.00;99.90;;;;;;5049056;28;20489;-69
2022/05/12 05:02:31;;;;;;;8.57;3.00;;;16.00;99.90;;;;;;5032075;28;20869;-69
2022/05/12 05:04:59;;;;;;;7.90;2.60;;;16.10;99.90;;;;;;5030117;28;20465;-70
2022/05/12 05:07:26;;;;;;;5.10;2.83;;;16.10;99.90;;;;;;5042724;28;20461;-69
2022/05/12 05:09:52;;;;;;;7.73;3.00;;;16.20;99.90;;;;;;5031908;28;20864;-69
2022/05/12 05:12:19;;;;;;;9.33;3.03;;;16.20;99.90;;;;;;5051213;28;20565;-69
2022/05/12 05:14:46;;;;;;;2.97;2.57;;;16.30;99.90;;;;;;5048235;28;20505;-69
2022/05/12 05:17:13;;;;;;;7.43;3.37;;;16.40;99.90;;;;;;5039610;28;20449;-69
2022/05/12 05:19:41;;;;;;;6.20;3.20;;;16.40;99.90;;;;;;5031263;28;20432;-69
2022/05/12 05:22:09;;;;;;;4.50;2.90;;;16.40;99.90;;;;;;5031448;28;20472;-69
2022/05/12 05:24:37;;;;;;;4.43;3.00;;;16.40;99.90;;;;;;5031180;28;20461;-69
2022/05/12 05:27:06;;;;;;;4.83;3.17;;;16.50;99.90;;;;;;5031705;28;20871;-69
2022/05/12 05:29:32;;;;;;;3.30;3.00;;;16.60;99.90;;;;;;5031930;28;20457;-70
2022/05/12 05:31:59;;;;;;;3.93;3.13;;;16.60;99.90;;;;;;5030810;28;20524;-69
2022/05/12 05:34:26;;;;;;;4.67;3.77;;;16.70;99.90;;;;;;5030937;28;20503;-69
2022/05/12 05:36:53;;;;;;;5.40;3.00;;;16.80;99.90;;;;;;5031545;28;21015;-69
2022/05/12 05:39:22;;;;;;;7.20;3.07;;;16.90;99.90;;;;;;5035482;28;20475;-70
2022/05/12 05:41:49;;;;;;;4.03;3.43;;;17.00;99.90;;;;;;5025534;28;20817;-70
2022/05/12 05:44:16;;;;;;;4.60;3.50;;;17.20;99.90;;;;;;5030754;28;20489;-69
2022/05/12 05:46:42;;;;;;;7.23;3.23;;;17.40;99.90;;;;;;5031387;28;20453;-70
2022/05/12 05:49:09;;;;;;;5.57;3.20;;;17.40;99.90;;;;;;5031551;28;20480;-69
2022/05/12 05:54:21;;;;;;;7.80;3.23;;;17.40;99.90;;;;;;5030918;28;20428;-69
2022/05/12 05:56:48;;;;;;;6.10;3.47;;;17.50;99.90;;;;;;5031164;28;20449;-69
2022/05/12 05:59:15;;;;;;;6.20;3.93;;;17.60;99.90;;;;;;5031183;28;20452;-69
2022/05/12 06:01:41;;;;;;;7.43;4.20;;;17.60;99.90;;;;;;5030634;28;20488;-71
2022/05/12 06:04:08;;;;;;;6.00;4.83;;;17.60;99.90;;;;;;5035869;28;20449;-70
2022/05/12 06:06:35;;;;;;;4.60;4.13;;;17.80;99.90;;;;;;5047060;28;21026;-71
2022/05/12 06:09:02;;;;;;;6.73;4.27;;;18.00;99.90;;;;;;5034883;28;20470;-71
2022/05/12 06:11:30;;;;;;;5.40;4.10;;;18.20;99.90;;;;;;5030327;28;20485;-72
2022/05/12 06:13:57;;;;;;;6.03;3.80;;;18.40;99.90;;;;;;5030018;28;20449;-72
2022/05/12 06:16:23;;;;;;;4.60;4.20;;;18.60;99.90;;;;;;5030627;28;20454;-71
2022/05/12 06:18:53;;;;;;;7.17;4.10;;;18.80;99.90;;;;;;5030781;28;20464;-72
2022/05/12 06:21:20;;;;;;;8.10;4.43;;;19.10;99.90;;;;;;5029473;28;20459;-71
2022/05/12 06:23:46;;;;;;;5.30;4.70;;;19.30;99.90;;;;;;5029169;28;20412;-72
2022/05/12 06:26:14;;;;;;;8.17;3.60;;;19.50;99.90;;;;;;5049266;28;20515;-71
2022/05/12 06:28:45;;;;;;;5.73;3.53;;;19.50;99.90;;;;;;5039149;28;20461;-71
2022/05/12 06:31:12;;;;;;;8.53;5.80;;;19.50;99.90;;;;;;5032159;28;20440;-72
2022/05/12 06:33:41;;;;;;;8.00;4.90;;;19.50;99.90;;;;;;5049837;28;20472;-72
2022/05/12 06:36:08;;;;;;;7.70;5.37;;;19.50;99.90;;;;;;5049929;28;20942;-72
2022/05/12 06:38:35;;;;;;;6.10;5.50;;;19.70;99.90;;;;;;5050335;28;20533;-72
2022/05/12 06:41:04;;;;;;;11.80;5.60;;;19.60;99.90;;;;;;5040605;28;20468;-71
2022/05/12 06:43:30;;;;;;;6.63;4.87;;;19.70;99.90;;;;;;5031418;28;20450;-71
2022/05/12 06:45:58;;;;;;;8.03;5.53;;;19.70;99.90;;;;;;5033868;28;20427;-71
2022/05/12 06:48:25;;;;;;;8.80;5.33;;;19.70;99.90;;;;;;5033850;28;20550;-71
2022/05/12 06:50:52;;;;;;;10.40;5.20;;;19.80;99.90;;;;;;5033405;28;20443;-71
2022/05/12 06:53:19;;;;;;;7.40;5.53;;;19.90;99.90;;;;;;5032944;28;21015;-71
2022/05/12 06:55:46;;;;;;;6.00;4.97;;;20.00;99.90;;;;;;5033758;28;20427;-71
2022/05/12 06:58:17;;;;;;;5.63;4.63;;;20.00;99.90;;;;;;5033635;28;20535;-71
2022/05/12 07:00:43;;;;;;;10.17;4.70;;;20.00;99.90;;;;;;5036054;28;20466;-70
2022/05/12 07:03:12;;;;;;;6.87;4.77;;;20.10;99.90;;;;;;5053279;28;20435;-70
2022/05/12 07:05:40;;;;;;;5.03;4.63;;;20.20;99.90;;;;;;5053263;28;20431;-70
2022/05/12 07:08:08;;;;;;;7.17;5.00;;;20.10;99.90;;;;;;5050848;28;20919;-71
2022/05/12 07:10:36;;;;;;;5.60;4.90;;;20.20;99.90;;;;;;5033527;28;20474;-72
2022/05/12 07:13:03;;;;;;;8.60;4.50;;;20.00;99.90;;;;;;5042272;28;20817;-71
2022/05/12 07:15:30;;;;;;;5.00;4.53;;;20.00;99.90;;;;;;5039836;28;20436;-71
2022/05/12 07:17:58;;;;;;;5.80;4.20;;;20.30;99.90;;;;;;5034310;28;20446;-72
2022/05/12 07:28:52;;;;;;;4.87;3.93;;;20.50;99.90;;;;;;5025372;28;20468;-72
2022/05/12 07:31:20;;;;;;;3.70;3.40;;;20.60;99.90;;;;;;5035920;28;20951;-72
2022/05/12 07:33:48;;;;;;;8.37;3.90;;;20.70;99.90;;;;;;5032712;28;20436;-72
2022/05/12 07:36:19;;;;;;;6.77;3.60;;;20.70;99.90;;;;;;5032970;28;20415;-71
2022/05/12 07:38:46;;;;;;;4.30;3.50;;;21.00;99.90;;;;;;5033107;28;20503;-71
2022/05/12 07:41:14;;;;;;;5.83;3.83;;;21.10;99.90;;;;;;5031906;28;20516;-74
2022/05/12 07:43:42;;;;;;;6.63;3.50;;;20.90;99.90;;;;;;5032350;28;20451;-71
2022/05/12 07:46:10;;;;;;;4.43;3.67;;;20.90;99.90;;;;;;5035919;28;20960;-71
2022/05/12 07:48:38;;;;;;;5.30;3.40;;;21.30;99.90;;;;;;5014464;28;20456;-71
2022/05/12 07:51:06;;;;;;;4.80;3.67;;;21.30;99.90;;;;;;5032467;28;20520;-71
2022/05/12 07:53:34;;;;;;;5.17;3.60;;;21.40;99.90;;;;;;5032126;28;20453;-71
2022/05/12 07:56:01;;;;;;;7.90;3.73;;;21.00;99.90;;;;;;5030734;28;20499;-71
2022/05/12 07:58:28;;;;;;;3.60;3.30;;;20.90;99.90;;;;;;5032396;28;20788;-71
2022/05/12 08:00:55;;;;;;;4.27;3.73;;;21.30;99.90;;;;;;5035714;28;20484;-71
2022/05/12 08:03:22;;;;;;;5.50;3.60;;;21.60;99.90;;;;;;5031939;28;20453;-71
2022/05/12 08:05:49;;;;;;;5.33;4.40;;;22.00;99.90;;;;;;5031205;28;20978;-71
2022/05/12 08:08:16;;;;;;;4.77;3.93;;;22.00;99.90;;;;;;5032426;28;20499;-71
2022/05/12 08:10:44;;;;;;;3.60;3.00;;;22.40;99.90;;;;;;5031861;28;20550;-72
2022/05/12 08:13:16;;;;;;;5.60;3.20;;;22.50;99.90;;;;;;5031203;28;20461;-72
2022/05/12 08:15:43;;;;;;;10.00;3.00;;;22.00;99.90;;;;;;5040051;28;20457;-73
2022/05/12 08:18:09;;;;;;;6.80;3.00;;;22.20;99.90;;;;;;5032291;28;20454;-73
2022/05/12 08:20:38;;;;;;;3.63;3.03;;;22.50;99.90;;;;;;5032030;28;20456;-74
2022/05/12 08:23:05;;;;;;;3.20;2.90;;;22.50;99.90;;;;;;5031481;28;20523;-72
2022/05/12 08:25:31;;;;;;;3.43;3.13;;;22.00;99.90;;;;;;5032882;28;20519;-71
2022/05/12 08:27:59;;;;;;;3.63;3.33;;;22.20;99.90;;;;;;5041673;28;20456;-72
2022/05/12 08:30:26;;;;;;;4.03;3.40;;;22.40;99.90;;;;;;5042699;28;20432;-71
2022/05/12 08:32:53;;;;;;;3.37;3.17;;;22.70;99.90;;;;;;5012241;28;20581;-73
2022/05/12 08:35:19;;;;;;;4.00;2.90;;;22.90;99.90;;;;;;5050516;28;20452;-73
2022/05/12 08:37:46;;;;;;;3.30;3.00;;;22.70;99.90;;;;;;5051783;28;20460;-73
2022/05/12 08:40:20;;;;;;;7.23;3.53;;;22.60;99.90;;;;;;5049057;28;20956;-73
2022/05/12 08:42:47;;;;;;;8.03;3.20;;;22.80;99.90;;;;;;5032028;28;20492;-73
2022/05/12 08:45:21;;;;;;;5.10;3.33;;;23.40;99.90;;;;;;5034323;28;20448;-73
2022/05/12 08:47:50;;;;;;;3.87;3.40;;;23.70;99.90;;;;;;5050064;28;20460;-71
2022/05/12 08:50:23;;;;;;;3.37;3.17;;;23.60;99.90;;;;;;5034166;28;20449;-73
2022/05/12 08:52:53;;;;;;;3.50;3.20;;;23.60;99.90;;;;;;5031384;28;20448;-72
2022/05/12 08:55:24;;;;;;;5.03;3.20;;;23.30;99.90;;;;;;5035477;28;20456;-72
2022/05/12 08:57:56;;;;;;;4.17;3.00;;;23.20;99.90;;;;;;5051288;28;20822;-72
2022/05/12 09:00:27;;;;;;;8.80;3.00;;;22.20;99.90;;;;;;5050057;28;20455;-72
2022/05/12 09:03:01;;;;;;;3.97;3.23;;;22.10;99.90;;;;;;5033303;28;20490;-72
2022/05/12 09:05:31;;;;;;;7.93;3.67;;;22.10;99.90;;;;;;5040427;28;20455;-71
2022/05/12 09:08:07;;;;;;;6.00;3.70;;;22.00;99.90;;;;;;5029575;28;20460;-71
2022/05/12 09:10:47;;;;;;;3.53;3.27;;;22.10;99.90;;;;;;5033168;28;20460;-72
2022/05/12 09:13:16;;;;;;;6.43;3.43;;;22.30;99.90;;;;;;5010841;28;20461;-73
2022/05/12 09:15:51;;;;;;;5.27;3.27;;;22.60;99.90;;;;;;5021957;28;21079;-72
2022/05/12 09:18:23;;;;;;;6.17;4.27;;;22.50;99.90;;;;;;5030794;28;20827;-71
2022/05/12 09:20:49;;;;;;;5.97;3.47;;;22.50;99.90;;;;;;5030989;28;20561;-72
2022/05/12 09:23:16;;;;;;;3.07;2.77;;;22.70;99.90;;;;;;5030546;28;20520;-73
2022/05/12 09:25:45;;;;;;;8.57;2.90;;;22.60;99.90;;;;;;5030659;28;20449;-72
2022/05/12 09:28:25;;;;;;;3.43;3.10;;;22.30;99.90;;;;;;5038459;28;20506;-71
2022/05/12 09:30:55;;;;;;;3.80;3.13;;;22.10;99.90;;;;;;5031345;28;20477;-72
2022/05/12 09:33:29;;;;;;;4.67;3.00;;;22.10;99.90;;;;;;5039474;28;20457;-71
2022/05/12 09:35:57;;;;;;;4.17;3.60;;;22.20;99.90;;;;;;5039855;28;20488;-71
2022/05/12 09:38:26;;;;;;;6.00;3.10;;;22.10;99.90;;;;;;5039498;28;20483;-72
2022/05/12 09:40:54;;;;;;;4.73;3.30;;;22.10;99.90;;;;;;5042455;28;20477;-71
2022/05/12 09:43:28;;;;;;;3.90;2.80;;;22.20;99.90;;;;;;5044684;28;20473;-73
2022/05/12 09:46:22;;;;;;;4.03;3.67;;;22.00;99.90;;;;;;5049179;28;20454;-73
2022/05/12 09:48:50;;;;;;;3.37;3.17;;;22.00;99.90;;;;;;5046141;28;20452;-72
2022/05/12 09:51:29;;;;;;;4.20;3.07;;;22.10;99.90;;;;;;5037411;28;20987;-72
2022/05/12 09:54:11;;;;;;;3.93;3.30;;;22.10;99.90;;;;;;5050122;28;20972;-72
2022/05/12 09:56:39;;;;;;;4.77;3.40;;;22.10;99.90;;;;;;5048213;28;21073;-73
2022/05/12 09:59:17;;;;;;;3.80;2.90;;;22.20;99.90;;;;;;5049664;28;20484;-72
2022/05/12 10:01:53;;;;;;;3.50;3.10;;;22.30;99.90;;;;;;5033275;28;20492;-71
2022/05/12 10:10:11;;;;;;;6.27;3.20;;;21.90;99.90;;;;;;5029371;28;20433;-72
2022/05/12 10:12:46;;;;;;;4.27;3.10;;;22.00;99.90;;;;;;5018633;28;21072;-72
2022/05/12 10:15:19;;;;;;;3.83;3.00;;;22.50;99.90;;;;;;5031446;28;20548;-72
2022/05/12 10:17:49;;;;;;;3.30;3.03;;;23.30;99.90;;;;;;5031263;28;20499;-71
2022/05/12 10:20:19;;;;;;;4.33;3.07;;;23.80;99.90;;;;;;5034476;28;20465;-71
2022/05/12 10:22:54;;;;;;;4.63;2.90;;;23.80;99.90;;;;;;5033564;28;20488;-72
2022/05/12 10:25:39;;;;;;;4.73;3.10;;;23.10;99.90;;;;;;5033920;28;20460;-72
2022/05/12 10:28:16;;;;;;;3.03;2.70;;;23.00;99.90;;;;;;5034501;28;20552;-73
2022/05/12 10:30:51;;;;;;;4.10;2.50;;;23.10;99.90;;;;;;5034086;28;20555;-72
2022/05/12 10:33:44;;;;;;;5.57;2.90;;;23.50;99.90;;;;;;5033183;28;20953;-72
2022/05/12 10:36:23;;;;;;;5.33;2.33;;;23.90;99.90;;;;;;5042319;28;20452;-73
2022/05/12 10:39:02;;;;;;;4.80;2.30;;;24.40;99.90;;;;;;5034628;28;20460;-71
2022/05/12 10:41:33;;;;;;;10.60;7.30;;;24.80;98.60;;;;;;5034509;28;20477;-71
2022/05/12 10:44:20;;;;;;;3.77;2.87;;;24.60;98.00;;;;;;5039637;28;20457;-71
2022/05/12 10:46:55;;;;;;;3.23;2.00;;;23.60;98.60;;;;;;5039052;28;20465;-72
2022/05/12 10:49:27;;;;;;;2.60;1.83;;;23.00;98.90;;;;;;5034489;28;20543;-71
2022/05/12 10:52:07;;;;;;;2.90;1.93;;;22.50;99.70;;;;;;5042134;28;20514;-71
2022/05/12 10:54:44;;;;;;;11.23;2.50;;;22.80;99.90;;;;;;5053922;28;20459;-70
2022/05/12 10:57:28;;;;;;;1.90;1.80;;;22.90;99.20;;;;;;5054586;28;20447;-71
2022/05/12 11:00:08;;;;;;;4.27;1.97;;;23.10;99.90;;;;;;5054227;28;20450;-71
2022/05/12 11:02:41;;;;;;;3.77;2.10;;;23.50;99.10;;;;;;5034758;28;20480;-70
2022/05/12 11:05:28;;;;;;;2.47;2.00;;;24.00;99.90;;;;;;5013965;28;20799;-71
2022/05/12 11:08:04;;;;;;;2.80;1.70;;;24.60;98.90;;;;;;5045852;28;20452;-71
2022/05/12 11:10:36;;;;;;;4.63;1.87;;;25.10;99.50;;;;;;5053979;28;20451;-71
2022/05/12 11:13:12;;;;;;;3.03;1.70;;;25.50;99.40;;;;;;5036247;28;20461;-71
2022/05/12 11:15:47;;;;;;;2.33;1.93;;;25.50;97.30;;;;;;5033871;28;20449;-72
2022/05/12 11:18:19;;;;;;;6.30;1.80;;;25.10;97.20;;;;;;5033931;28;20444;-71
2022/05/12 11:20:56;;;;;;;6.53;2.37;;;25.10;97.90;;;;;;5033454;28;20993;-71
2022/05/12 11:23:34;;;;;;;4.03;1.50;;;25.00;97.50;;;;;;5033524;28;20515;-71
2022/05/12 11:26:07;;;;;;;3.10;1.50;;;25.00;97.00;;;;;;5033863;28;20495;-71
2022/05/12 11:31:31;;;;;;;2.90;1.90;;;24.90;98.30;;;;;;5042398;28;20463;-70
2022/05/12 11:34:04;;;;;;;2.10;1.73;;;25.50;97.20;;;;;;5033292;28;20523;-71
2022/05/12 11:36:39;;;;;;;2.93;1.93;;;25.90;96.50;;;;;;5033844;28;20477;-71
2022/05/12 11:39:26;;;;;;;3.10;1.80;;;25.60;95.60;;;;;;5034056;28;20453;-71
2022/05/12 11:42:16;;;;;;;4.07;1.90;;;25.00;95.70;;;;;;5033670;28;20489;-71
2022/05/12 11:44:56;;;;;;;3.00;1.60;;;25.20;96.80;;;;;;5033029;28;20454;-72
2022/05/12 11:48:01;;;;;;;1.80;1.70;;;25.50;94.70;;;;;;5032708;28;20507;-70
2022/05/12 11:50:43;;;;;;;2.30;2.07;;;25.30;95.00;;;;;;5033216;28;20859;-70
2022/05/12 11:53:17;;;;;;;2.77;1.70;;;25.10;95.20;;;;;;5033138;28;20944;-70
2022/05/12 11:56:01;;;;;;;3.77;1.87;;;25.00;95.80;;;;;;5033344;28;20511;-71
2022/05/12 11:58:40;;;;;;;3.40;1.63;;;25.30;95.80;;;;;;5033680;28;20870;-71
2022/05/12 12:01:09;;;;;;;2.27;1.83;;;25.60;95.20;;;;;;5033156;28;20469;-71
2022/05/12 12:03:46;;;;;;;6.03;1.90;;;25.70;96.00;;;;;;5032673;28;21062;-72
2022/05/12 12:06:38;;;;;;;15.90;2.10;;;25.50;94.10;;;;;;5051758;28;20456;-70
2022/05/12 12:09:33;;;;;;;2.50;2.00;;;24.40;95.00;;;;;;5053248;28;20460;-70
2022/05/12 12:12:00;;;;;;;5.60;2.20;;;23.90;97.00;;;;;;5049541;28;20485;-71
2022/05/12 12:14:59;;;;;;;3.30;2.37;;;24.40;97.30;;;;;;5032754;28;20461;-71
2022/05/12 12:17:35;;;;;;;5.13;2.10;;;25.20;98.10;;;;;;5033198;28;20495;-71
2022/05/12 12:20:08;;;;;;;4.43;2.00;;;25.80;96.00;;;;;;5046917;28;20974;-71
2022/05/12 12:22:44;;;;;;;2.63;1.80;;;25.70;94.90;;;;;;5050828;28;20575;-71
2022/05/12 12:25:30;;;;;;;7.63;1.90;;;25.90;95.80;;;;;;5038354;28;20457;-71
2022/05/12 12:28:13;;;;;;;13.73;2.17;;;26.50;96.60;;;;;;5032648;28;20826;-70
2022/05/12 12:31:04;;;;;;;2.43;1.70;;;27.10;94.20;;;;;;5032710;28;20460;-71
2022/05/12 12:34:05;;;;;;;5.13;1.80;;;27.50;94.40;;;;;;5032250;28;20476;-71
2022/05/12 12:36:57;;;;;;;1.80;1.33;;;27.60;94.10;;;;;;5032506;28;20457;-70
2022/05/12 12:39:34;;;;;;;3.20;1.53;;;28.00;95.40;;;;;;5032719;28;20893;-71
2022/05/12 12:42:33;;;;;;;2.43;1.47;;;27.70;93.00;;;;;;5032069;28;20485;-71
2022/05/12 12:45:05;;;;;;;3.80;1.77;;;27.70;93.50;;;;;;5036077;28;20464;-71
2022/05/12 12:47:39;;;;;;;4.10;1.80;;;28.30;92.30;;;;;;5012662;28;20842;-71
2022/05/12 12:50:15;;;;;;;2.70;1.70;;;28.50;92.10;;;;;;5021785;28;20476;-71
2022/05/12 12:52:42;;;;;;;8.37;1.60;;;28.80;92.20;;;;;;5032160;28;20473;-71
2022/05/12 12:58:07;;;;;;;4.37;1.67;;;28.80;90.40;;;;;;5032477;28;20421;-71
2022/05/12 13:00:36;;;;;;;3.90;1.57;;;28.50;90.80;;;;;;5032033;28;20455;-70
2022/05/12 13:03:06;;;;;;;1.90;1.33;;;27.70;91.10;;;;;;5037938;28;20484;-71
2022/05/12 13:05:35;;;;;;;3.80;1.50;;;27.80;92.20;;;;;;5051455;28;21002;-70
2022/05/12 13:08:04;;;;;;;4.17;1.60;;;28.00;90.70;;;;;;5052085;28;20456;-71
2022/05/12 13:10:41;;;;;;;2.50;1.47;;;27.40;90.70;;;;;;5041465;28;20453;-71
2022/05/12 13:13:09;;;;;;;2.90;1.50;;;27.50;91.60;;;;;;5031230;28;20877;-71
2022/05/12 13:15:39;;;;;;;3.30;1.53;;;27.70;91.80;;;;;;5031900;28;20502;-71
2022/05/12 13:18:09;;;;;;;1.63;1.50;;;28.10;92.30;;;;;;5032071;28;20457;-71
2022/05/12 13:20:41;;;;;;;4.60;1.50;;;28.40;90.70;;;;;;5031531;28;20528;-71
2022/05/12 13:23:10;;;;;;;2.90;1.40;;;28.40;88.80;;;;;;5048611;28;20542;-71
2022/05/12 13:25:40;;;;;;;2.80;1.53;;;28.30;88.40;;;;;;5038103;28;20481;-71
2022/05/12 13:28:21;;;;;;;3.83;1.40;;;28.00;88.90;;;;;;5031684;28;20465;-71